createdAt,value
2018-06-08T00:02:21.863Z,101440.09
2018-06-08T00:04:50.258Z,101439.25
2018-06-08T00:07:18.627Z,101432.67
2018-06-08T00:09:47.019Z,101434.05
2018-06-08T00:12:15.387Z,101443.27
2018-06-08T00:14:43.786Z,101446.81
2018-06-08T00:17:12.159Z,101441.14
2018-06-08T00:19:40.554Z,101445.97
2018-06-08T00:22:08.927Z,101441.16
2018-06-08T00:24:37.335Z,101440.28
2018-06-08T00:27:05.766Z,101434.22
2018-06-08T00:29:34.138Z,101442.98
2018-06-08T00:32:02.539Z,101435.14
2018-06-08T00:34:30.919Z,101442.59
2018-06-08T00:36:59.339Z,101439.55
2018-06-08T00:39:27.710Z,101436.05
2018-06-08T00:41:56.111Z,101432.55
2018-06-08T00:44:24.478Z,101437.80
2018-06-08T00:46:52.870Z,101435.19
2018-06-08T00:49:21.249Z,101432.16
2018-06-08T00:51:49.642Z,101426.94
2018-06-08T00:54:18.033Z,101426.89
2018-06-08T00:56:57.898Z,101424.72
2018-06-08T00:59:26.269Z,101428.26
2018-06-08T01:01:54.687Z,101424.78
2018-06-08T01:04:23.060Z,101424.34
2018-06-08T01:06:51.475Z,101425.67
2018-06-08T01:09:19.851Z,101417.36
2018-06-08T01:11:48.222Z,101421.76
2018-06-08T01:14:16.613Z,101418.25
2018-06-08T01:16:44.979Z,101422.20
2018-06-08T01:19:13.374Z,101417.86
2018-06-08T01:21:41.743Z,101416.98
2018-06-08T01:24:10.562Z,101422.66
2018-06-08T01:26:38.926Z,101422.69
2018-06-08T01:29:07.331Z,101422.25
2018-06-08T01:31:35.704Z,101428.38
2018-06-08T01:34:04.100Z,101430.13
2018-06-08T01:36:32.472Z,101427.48
2018-06-08T01:39:00.867Z,101428.38
2018-06-08T01:41:29.239Z,101429.26
2018-06-08T01:43:57.635Z,101433.18
2018-06-08T01:46:26.006Z,101424.02
2018-06-08T01:48:54.384Z,101427.52
2018-06-08T01:51:22.774Z,101422.27
2018-06-08T01:53:51.141Z,101425.34
2018-06-08T01:56:19.551Z,101420.52
2018-06-08T01:58:47.923Z,101420.52
2018-06-08T02:01:16.338Z,101420.55
2018-06-08T02:03:44.713Z,101417.06
2018-06-08T02:06:13.102Z,101417.44
2018-06-08T02:08:41.488Z,101410.91
2018-06-08T02:11:09.879Z,101408.70
2018-06-08T02:13:38.251Z,101418.77
2018-06-08T02:16:06.650Z,101414.83
2018-06-08T02:18:35.028Z,101418.33
2018-06-08T02:21:03.425Z,101421.81
2018-06-08T02:23:31.831Z,101419.64
2018-06-08T02:26:00.233Z,101423.98
2018-06-08T02:28:28.608Z,101423.56
2018-06-08T02:30:56.999Z,101425.30
2018-06-08T02:33:25.416Z,101420.92
2018-06-08T02:35:53.790Z,101425.70
2018-06-08T02:38:22.184Z,101422.20
2018-06-08T02:40:50.573Z,101421.35
2018-06-08T02:43:18.978Z,101419.60
2018-06-08T02:45:47.347Z,101414.79
2018-06-08T02:48:15.751Z,101414.78
2018-06-08T02:50:44.131Z,101421.34
2018-06-08T02:53:12.530Z,101416.97
2018-06-08T02:55:40.914Z,101411.70
2018-06-08T02:58:09.307Z,101410.81
2018-06-08T03:00:37.715Z,101404.27
2018-06-08T03:03:06.116Z,101410.39
2018-06-08T03:05:34.486Z,101410.39
2018-06-08T03:08:02.882Z,101412.13
2018-06-08T03:10:31.268Z,101410.83
2018-06-08T03:12:59.688Z,101414.77
2018-06-08T03:15:28.067Z,101413.88
2018-06-08T03:17:56.438Z,101413.45
2018-06-08T03:20:24.835Z,101400.78
2018-06-08T03:22:53.206Z,101404.29
2018-06-08T03:25:21.611Z,101407.79
2018-06-08T03:27:50.003Z,101404.73
2018-06-08T03:30:18.429Z,101414.33
2018-06-08T03:32:46.804Z,101409.11
2018-06-08T03:35:15.194Z,101412.16
2018-06-08T03:37:43.558Z,101409.11
2018-06-08T03:40:11.950Z,101409.11
2018-06-08T03:42:40.614Z,101413.94
2018-06-08T03:45:09.046Z,101421.80
2018-06-08T03:47:37.422Z,101418.31
2018-06-08T03:50:05.798Z,101420.06
2018-06-08T03:52:34.190Z,101414.83
2018-06-08T03:55:02.554Z,101414.41
2018-06-08T03:57:30.950Z,101413.09
2018-06-08T03:59:59.330Z,101417.43
2018-06-08T04:02:27.772Z,101423.03
2018-06-08T04:04:56.155Z,101423.42
2018-06-08T04:07:24.562Z,101422.39
2018-06-08T04:09:52.933Z,101417.84
2018-06-08T04:12:21.323Z,101420.30
2018-06-08T04:14:49.698Z,101414.42
2018-06-08T04:17:18.090Z,101415.10
2018-06-08T04:19:46.453Z,101414.86
2018-06-08T04:22:14.858Z,101411.09
2018-06-08T04:24:43.226Z,101409.02
2018-06-08T04:27:11.614Z,101411.32
2018-06-08T04:29:39.994Z,101414.07
2018-06-08T04:32:08.467Z,101412.42
2018-06-08T04:34:36.847Z,101414.22
2018-06-08T04:37:05.257Z,101407.33
2018-06-08T04:39:33.627Z,101413.20
2018-06-08T04:42:01.994Z,101409.00
2018-06-08T04:44:30.390Z,101407.48
2018-06-08T04:46:58.754Z,101408.27
2018-06-08T04:49:27.155Z,101415.27
2018-06-08T04:51:55.531Z,101408.80
2018-06-08T04:54:24.008Z,101414.22
2018-06-08T04:56:52.916Z,101414.36
2018-06-08T04:59:21.862Z,101420.20
2018-06-08T05:01:50.262Z,101421.17
2018-06-08T05:04:18.663Z,101418.17
2018-06-08T05:06:47.051Z,101414.66
2018-06-08T05:09:15.454Z,101419.34
2018-06-08T05:11:43.891Z,101418.70
2018-06-08T05:14:12.306Z,101418.86
2018-06-08T05:16:40.685Z,101416.48
2018-06-08T05:19:09.058Z,101422.09
2018-06-08T05:21:37.459Z,101417.97
2018-06-08T05:24:05.838Z,101417.04
2018-06-08T05:26:34.248Z,101420.06
2018-06-08T05:29:02.634Z,101409.12
2018-06-08T05:31:31.131Z,101413.16
2018-06-08T05:33:59.612Z,101409.30
2018-06-08T05:36:28.004Z,101415.50
2018-06-08T05:38:56.378Z,101414.23
2018-06-08T05:41:24.774Z,101418.69
2018-06-08T05:43:53.142Z,101420.47
2018-06-08T05:46:21.547Z,101420.92
2018-06-08T05:48:49.926Z,101417.35
2018-06-08T05:51:18.342Z,101412.41
2018-06-08T05:53:46.753Z,101414.89
2018-06-08T05:56:15.151Z,101423.11
2018-06-08T05:58:43.543Z,101417.67
2018-06-08T06:01:11.963Z,101419.72
2018-06-08T06:03:40.367Z,101415.52
2018-06-08T06:06:08.740Z,101419.23
2018-06-08T06:08:37.147Z,101416.37
2018-06-08T06:11:05.524Z,101416.16
2018-06-08T06:13:33.922Z,101412.86
2018-06-08T06:16:02.296Z,101412.22
2018-06-08T06:18:30.690Z,101412.50
2018-06-08T06:20:59.114Z,101411.84
2018-06-08T06:23:27.506Z,101411.23
2018-06-08T06:25:55.884Z,101412.81
2018-06-08T06:28:24.277Z,101426.25
2018-06-08T06:30:52.656Z,101382.24
2018-06-08T06:33:21.065Z,101424.65
2018-06-08T06:35:49.503Z,101428.79
2018-06-08T06:38:17.877Z,101428.00
2018-06-08T06:40:46.275Z,101422.38
2018-06-08T06:43:14.647Z,101422.91
2018-06-08T06:45:43.122Z,101419.81
2018-06-08T06:48:11.490Z,101417.68
2018-06-08T06:50:39.887Z,101414.60
2018-06-08T06:53:08.318Z,101415.92
2018-06-08T06:55:36.699Z,101414.58
2018-06-08T06:58:05.071Z,101413.20
2018-06-08T07:00:33.493Z,101408.86
2018-06-08T07:03:01.862Z,101414.62
2018-06-08T07:05:30.267Z,101408.59
2018-06-08T07:07:58.647Z,101421.06
2018-06-08T07:10:27.043Z,101421.59
2018-06-08T07:12:55.416Z,101425.23
2018-06-08T07:15:23.818Z,101428.01
2018-06-08T07:17:52.189Z,101423.74
2018-06-08T07:20:20.562Z,101420.30
2018-06-08T07:22:48.958Z,101416.39
2018-06-08T07:25:17.330Z,101422.33
2018-06-08T07:27:45.722Z,101420.40
2018-06-08T07:30:14.102Z,101423.28
2018-06-08T07:32:42.498Z,101422.06
2018-06-08T07:35:10.876Z,101433.22
2018-06-08T07:37:39.270Z,101425.33
2018-06-08T07:40:07.845Z,101419.72
2018-06-08T07:42:36.205Z,101426.75
2018-06-08T07:45:04.603Z,101426.74
2018-06-08T07:47:32.991Z,101426.78
2018-06-08T07:50:01.367Z,101426.28
2018-06-08T07:52:29.763Z,101428.50
2018-06-08T07:54:58.145Z,101428.98
2018-06-08T07:57:26.519Z,101424.14
2018-06-08T07:59:54.919Z,101431.66
2018-06-08T08:02:23.306Z,101434.81
2018-06-08T08:04:51.699Z,101435.34
2018-06-08T08:07:20.075Z,101421.77
2018-06-08T08:09:48.465Z,101423.54
2018-06-08T08:12:16.912Z,101409.14
2018-06-08T08:14:45.316Z,101417.18
2018-06-08T08:17:13.690Z,101415.12
2018-06-08T08:19:42.091Z,101407.84
2018-06-08T08:22:10.453Z,101411.63
2018-06-08T08:24:38.862Z,101409.30
2018-06-08T08:27:07.235Z,101409.15
2018-06-08T08:29:35.634Z,101405.09
2018-06-08T08:32:04.031Z,101414.28
2018-06-08T08:34:32.426Z,101410.55
2018-06-08T08:37:00.804Z,101410.34
2018-06-08T08:39:29.176Z,101406.66
2018-06-08T08:41:57.575Z,101405.51
2018-06-08T08:44:25.942Z,101405.69
2018-06-08T08:46:54.339Z,101400.50
2018-06-08T08:49:22.757Z,101402.64
2018-06-08T08:51:51.156Z,101410.60
2018-06-08T08:54:19.530Z,101403.66
2018-06-08T08:56:47.971Z,101405.63
2018-06-08T08:59:16.331Z,101405.89
2018-06-08T09:01:44.741Z,101409.20
2018-06-08T09:04:13.111Z,101401.83
2018-06-08T09:06:41.511Z,101403.00
2018-06-08T09:09:09.882Z,101409.05
2018-06-08T09:11:38.254Z,101403.96
2018-06-08T09:14:06.697Z,101406.81
2018-06-08T09:16:35.066Z,101402.97
2018-06-08T09:19:03.459Z,101405.67
2018-06-08T09:21:31.835Z,101410.08
2018-06-08T09:24:00.243Z,101405.36
2018-06-08T09:26:28.623Z,101403.01
2018-06-08T09:28:57.009Z,101393.97
2018-06-08T09:31:25.380Z,101399.15
2018-06-08T09:33:53.786Z,101397.75
2018-06-08T09:36:22.165Z,101400.80
2018-06-08T09:38:50.554Z,101396.25
2018-06-08T09:41:18.932Z,101390.26
2018-06-08T09:43:47.327Z,101391.36
2018-06-08T09:46:15.724Z,101396.81
2018-06-08T09:48:44.143Z,101391.61
2018-06-08T09:51:12.535Z,101390.89
2018-06-08T09:53:40.918Z,101390.34
2018-06-08T09:56:09.321Z,101382.02
2018-06-08T09:58:37.835Z,101389.22
2018-06-08T10:01:06.264Z,101384.41
2018-06-08T10:03:34.635Z,101385.89
2018-06-08T10:06:03.070Z,101379.69
2018-06-08T10:08:31.434Z,101380.30
2018-06-08T10:10:59.834Z,101379.55
2018-06-08T10:13:28.310Z,101381.74
2018-06-08T10:15:56.702Z,101381.57
2018-06-08T10:18:25.067Z,101388.01
2018-06-08T10:20:53.487Z,101390.92
2018-06-08T10:23:21.883Z,101382.92
2018-06-08T10:25:50.255Z,101375.69
2018-06-08T10:28:18.666Z,101377.33
2018-06-08T10:30:47.051Z,101378.19
2018-06-08T10:33:15.450Z,101375.81
2018-06-08T10:35:43.831Z,101378.83
2018-06-08T10:38:12.226Z,101373.41
2018-06-08T10:40:40.598Z,101372.78
2018-06-08T10:43:08.996Z,101379.18
2018-06-08T10:45:37.447Z,101377.41
2018-06-08T10:48:05.858Z,101378.31
2018-06-08T10:50:34.236Z,101371.30
2018-06-08T10:53:02.635Z,101367.52
2018-06-08T10:55:31.021Z,101364.17
2018-06-08T10:57:59.434Z,101368.00
2018-06-08T11:00:27.826Z,101365.73
2018-06-08T11:02:56.199Z,101370.42
2018-06-08T11:05:24.586Z,101361.72
2018-06-08T11:07:52.954Z,101365.36
2018-06-08T11:10:21.345Z,101361.05
2018-06-08T11:12:49.719Z,101358.59
2018-06-08T11:15:18.114Z,101351.63
2018-06-08T11:17:46.482Z,101352.11
2018-06-08T11:20:14.890Z,101349.77
2018-06-08T11:22:43.261Z,101356.16
2018-06-08T11:25:11.651Z,101353.48
2018-06-08T11:27:40.019Z,101342.69
2018-06-08T11:30:08.430Z,101341.08
2018-06-08T11:32:36.793Z,101354.09
2018-06-08T11:35:05.163Z,101346.27
2018-06-08T11:37:33.555Z,101344.23
2018-06-08T11:40:01.931Z,101332.48
2018-06-08T11:42:30.326Z,101329.51
2018-06-08T11:44:58.695Z,101331.14
2018-06-08T11:47:27.078Z,101336.39
2018-06-08T11:49:55.450Z,101330.95
2018-06-08T11:52:23.846Z,101332.09
2018-06-08T11:54:52.213Z,101329.14
2018-06-08T11:57:20.602Z,101319.02
2018-06-08T11:59:48.961Z,101312.03
2018-06-08T12:02:17.373Z,101301.24
2018-06-08T12:04:45.742Z,101300.67
2018-06-08T12:07:14.138Z,101297.63
2018-06-08T12:09:42.526Z,101293.70
2018-06-08T12:12:10.915Z,101300.89
2018-06-08T12:14:39.287Z,101289.00
2018-06-08T12:17:07.694Z,101295.42
2018-06-08T12:19:36.066Z,101290.55
2018-06-08T12:22:04.482Z,101287.95
2018-06-08T12:24:32.922Z,101279.25
2018-06-08T12:27:01.293Z,101274.09
2018-06-08T12:29:29.698Z,101276.77
2018-06-08T12:31:58.070Z,101282.59
2018-06-08T12:34:26.471Z,101286.23
2018-06-08T12:36:54.848Z,101288.14
2018-06-08T12:39:23.243Z,101274.46
2018-06-08T12:41:51.610Z,101273.52
2018-06-08T12:44:20.001Z,101276.48
2018-06-08T12:46:48.375Z,101275.43
2018-06-08T12:49:18.388Z,101264.88
2018-06-08T12:51:46.750Z,101269.95
2018-06-08T12:54:15.167Z,101266.59
2018-06-08T12:56:43.552Z,101255.70
2018-06-08T12:59:11.931Z,101257.20
2018-06-08T13:01:40.356Z,101259.31
2018-06-08T13:04:08.734Z,101255.20
2018-06-08T13:06:37.140Z,101252.97
2018-06-08T13:09:07.320Z,101249.99
2018-06-08T13:11:35.978Z,101248.11
2018-06-08T13:14:04.366Z,101254.24
2018-06-08T13:16:32.762Z,101248.66
2018-06-08T13:19:01.399Z,101248.95
2018-06-08T13:21:29.798Z,101244.64
2018-06-08T13:23:58.184Z,101242.28
2018-06-08T13:26:26.581Z,101237.37
2018-06-08T13:28:54.966Z,101229.82
2018-06-08T13:31:23.364Z,101238.14
2018-06-08T13:33:51.743Z,101232.58
2018-06-08T13:36:20.189Z,101233.92
2018-06-08T13:38:48.555Z,101234.52
2018-06-08T13:41:16.921Z,101228.97
2018-06-08T13:43:45.315Z,101223.69
2018-06-08T13:46:25.179Z,101223.12
2018-06-08T13:48:53.555Z,101223.59
2018-06-08T13:51:21.934Z,101217.33
2018-06-08T13:53:50.334Z,101221.21
2018-06-08T13:56:18.717Z,101222.92
2018-06-08T13:58:47.122Z,101215.73
2018-06-08T14:01:15.512Z,101222.06
2018-06-08T14:03:43.905Z,101223.28
2018-06-08T14:06:12.279Z,101220.15
2018-06-08T14:08:40.690Z,101214.78
2018-06-08T14:11:09.071Z,101219.94
2018-06-08T14:13:37.473Z,101212.66
2018-06-08T14:16:05.844Z,101221.65
2018-06-08T14:18:34.235Z,101218.69
2018-06-08T14:21:02.614Z,101212.11
2018-06-08T14:23:31.014Z,101215.84
2018-06-08T14:25:59.381Z,101210.48
2018-06-08T14:28:27.783Z,101213.31
2018-06-08T14:30:56.153Z,101213.64
2018-06-08T14:33:24.554Z,101204.06
2018-06-08T14:35:52.928Z,101214.70
2018-06-08T14:38:21.333Z,101210.67
2018-06-08T14:40:49.746Z,101203.41
2018-06-08T14:43:18.109Z,101211.54
2018-06-08T14:45:46.510Z,101204.35
2018-06-08T14:48:14.887Z,101211.73
2018-06-08T14:50:43.299Z,101206.25
2018-06-08T14:53:11.683Z,101201.30
2018-06-08T14:55:40.094Z,101212.10
2018-06-08T14:58:08.471Z,101208.66
2018-06-08T15:00:36.892Z,101212.88
2018-06-08T15:03:05.759Z,101209.64
2018-06-08T15:05:34.161Z,101200.34
2018-06-08T15:08:02.542Z,101210.01
2018-06-08T15:10:30.999Z,101206.96
2018-06-08T15:12:59.371Z,101203.79
2018-06-08T15:15:27.798Z,101203.30
2018-06-08T15:17:56.162Z,101214.80
2018-06-08T15:20:24.551Z,101210.49
2018-06-08T15:22:52.926Z,101210.70
2018-06-08T15:25:21.324Z,101204.57
2018-06-08T15:27:49.745Z,101208.95
2018-06-08T15:30:18.179Z,101212.89
2018-06-08T15:32:46.554Z,101211.47
2018-06-08T15:35:14.932Z,101206.00
2018-06-08T15:37:43.334Z,101207.66
2018-06-08T15:40:11.706Z,101210.80
2018-06-08T15:42:40.115Z,101208.23
2018-06-08T15:45:08.514Z,101209.00
2018-06-08T15:47:36.911Z,101212.74
2018-06-08T15:50:05.428Z,101208.23
2018-06-08T15:52:33.823Z,101211.00
2018-06-08T15:55:02.208Z,101202.11
2018-06-08T15:57:30.610Z,101206.70
2018-06-08T15:59:58.991Z,101208.81
2018-06-08T16:02:27.415Z,101202.20
2018-06-08T16:04:55.786Z,101212.54
2018-06-08T16:07:24.182Z,101206.29
2018-06-08T16:09:52.562Z,101212.61
2018-06-08T16:12:20.969Z,101208.13
2018-06-08T16:14:49.355Z,101209.46
2018-06-08T16:17:17.754Z,101214.98
2018-06-08T16:19:46.127Z,101204.38
2018-06-08T16:22:14.546Z,101202.93
2018-06-08T16:24:42.922Z,101207.44
2018-06-08T16:27:11.294Z,101201.81
2018-06-08T16:29:39.695Z,101201.51
2018-06-08T16:32:08.071Z,101203.13
2018-06-08T16:34:36.471Z,101206.53
2018-06-08T16:37:04.866Z,101207.95
2018-06-08T16:39:33.266Z,101215.59
2018-06-08T16:42:01.650Z,101209.77
2018-06-08T16:44:30.056Z,101207.94
2018-06-08T16:46:58.431Z,101213.46
2018-06-08T16:49:26.846Z,101219.87
2018-06-08T16:51:55.218Z,101215.94
2018-06-08T16:54:23.625Z,101217.97
2018-06-08T16:56:51.998Z,101216.63
2018-06-08T16:59:20.427Z,101216.55
2018-06-08T17:01:48.823Z,101225.44
2018-06-08T17:04:17.232Z,101224.96
2018-06-08T17:06:45.651Z,101222.12
2018-06-08T17:09:14.057Z,101225.17
2018-06-08T17:11:42.430Z,101228.70
2018-06-08T17:14:10.854Z,101224.23
2018-06-08T17:16:39.239Z,101227.56
2018-06-08T17:19:07.679Z,101229.79
2018-06-08T17:21:36.071Z,101233.20
2018-06-08T17:24:04.487Z,101235.19
2018-06-08T17:26:32.913Z,101227.62
2018-06-08T17:29:01.286Z,101238.48
2018-06-08T17:31:29.692Z,101242.04
2018-06-08T17:33:58.099Z,101241.80
2018-06-08T17:36:26.495Z,101243.36
2018-06-08T17:38:54.880Z,101249.56
2018-06-08T17:41:23.282Z,101250.94
2018-06-08T17:43:51.645Z,101250.67
2018-06-08T17:46:20.042Z,101248.95
2018-06-08T17:48:48.423Z,101247.91
2018-06-08T17:51:16.823Z,101248.28
2018-06-08T17:53:45.199Z,101250.19
2018-06-08T17:56:13.590Z,101251.50
2018-06-08T17:58:41.959Z,101247.73
2018-06-08T18:01:10.384Z,101242.95
2018-06-08T18:03:38.766Z,101244.37
2018-06-08T18:06:07.224Z,101246.13
2018-06-08T18:08:35.574Z,101244.09
2018-06-08T18:11:03.978Z,101245.25
2018-06-08T18:13:32.398Z,101239.70
2018-06-08T18:16:00.825Z,101244.25
2018-06-08T18:18:29.198Z,101246.84
2018-06-08T18:20:57.598Z,101245.36
2018-06-08T18:23:26.011Z,101253.05
2018-06-08T18:25:54.378Z,101254.08
2018-06-08T18:28:22.775Z,101255.35
2018-06-08T18:30:51.174Z,101254.85
2018-06-08T18:33:19.630Z,101257.43
2018-06-08T18:35:47.987Z,101262.75
2018-06-08T18:38:16.383Z,101259.72
2018-06-08T18:40:44.749Z,101268.15
2018-06-08T18:43:13.167Z,101267.20
2018-06-08T18:45:41.542Z,101268.01
2018-06-08T18:48:09.939Z,101268.80
2018-06-08T18:50:38.307Z,101273.58
2018-06-08T18:53:06.701Z,101273.86
2018-06-08T18:55:35.074Z,101272.92
2018-06-08T18:58:03.547Z,101275.11
2018-06-08T19:00:32.039Z,101282.95
2018-06-08T19:03:00.580Z,101282.47
2018-06-08T19:05:28.952Z,101277.14
2018-06-08T19:07:57.403Z,101282.70
2018-06-08T19:10:25.780Z,101280.38
2018-06-08T19:12:54.152Z,101284.75
2018-06-08T19:15:22.551Z,101293.02
2018-06-08T19:17:50.926Z,101292.39
2018-06-08T19:20:19.335Z,101302.38
2018-06-08T19:22:47.718Z,101303.56
2018-06-08T19:25:16.122Z,101298.07
2018-06-08T19:27:44.503Z,101299.23
2018-06-08T19:30:12.909Z,101295.55
2018-06-08T19:32:41.290Z,101293.19
2018-06-08T19:35:09.743Z,101292.09
2018-06-08T19:37:38.125Z,101293.16
2018-06-08T19:40:06.526Z,101295.08
2018-06-08T19:42:34.906Z,101300.09
2018-06-08T19:45:03.310Z,101303.72
2018-06-08T19:47:31.688Z,101295.53
2018-06-08T19:50:00.087Z,101293.92
2018-06-08T19:52:28.466Z,101297.61
2018-06-08T19:54:56.846Z,101301.69
2018-06-08T19:57:25.251Z,101295.69
2018-06-08T19:59:53.627Z,101301.61
2018-06-08T20:02:22.151Z,101305.71
2018-06-08T20:04:50.539Z,101308.92
2018-06-08T20:07:18.940Z,101299.47
2018-06-08T20:09:47.309Z,101309.75
2018-06-08T20:12:15.704Z,101312.97
2018-06-08T20:14:44.065Z,101307.01
2018-06-08T20:17:12.462Z,101311.16
2018-06-08T20:19:40.832Z,101307.83
2018-06-08T20:22:09.222Z,101309.36
2018-06-08T20:24:37.599Z,101312.20
2018-06-08T20:27:06.381Z,101310.19
2018-06-08T20:29:34.746Z,101308.12
2018-06-08T20:32:03.145Z,101316.64
2018-06-08T20:34:31.520Z,101315.41
2018-06-08T20:36:59.917Z,101309.41
2018-06-08T20:39:28.284Z,101306.38
2018-06-08T20:41:56.695Z,101310.83
2018-06-08T20:44:25.063Z,101310.06
2018-06-08T20:46:53.443Z,101312.36
2018-06-08T20:49:21.957Z,101319.47
2018-06-08T20:51:50.411Z,101320.52
2018-06-08T20:54:18.801Z,101314.08
2018-06-08T20:56:57.203Z,101316.41
2018-06-08T20:59:25.598Z,101315.23
2018-06-08T21:01:53.997Z,101315.80
2018-06-08T21:04:22.409Z,101317.27
2018-06-08T21:06:50.779Z,101316.55
2018-06-08T21:09:19.184Z,101319.80
2018-06-08T21:11:47.555Z,101326.53
2018-06-08T21:14:15.950Z,101327.52
2018-06-08T21:16:44.331Z,101323.68
2018-06-08T21:19:12.730Z,101318.50
2018-06-08T21:21:41.102Z,101320.40
2018-06-08T21:24:09.495Z,101317.92
2018-06-08T21:26:37.874Z,101325.45
2018-06-08T21:29:06.295Z,101322.93
2018-06-08T21:31:34.665Z,101322.58
2018-06-08T21:34:03.094Z,101330.18
2018-06-08T21:36:31.491Z,101321.94
2018-06-08T21:38:59.862Z,101325.52
2018-06-08T21:41:29.167Z,101323.44
2018-06-08T21:43:57.543Z,101329.25
2018-06-08T21:46:25.934Z,101327.17
2018-06-08T21:48:54.302Z,101325.95
2018-06-08T21:51:22.690Z,101329.99
2018-06-08T21:53:51.054Z,101328.36
2018-06-08T21:56:19.451Z,101320.14
2018-06-08T21:58:47.826Z,101326.42
2018-06-08T22:01:16.246Z,101324.33
2018-06-08T22:03:44.611Z,101327.10
2018-06-08T22:06:13.003Z,101328.10
2018-06-08T22:08:41.382Z,101324.25
2018-06-08T22:11:09.771Z,101323.89
2018-06-08T22:13:38.142Z,101324.39
2018-06-08T22:16:06.553Z,101314.42
2018-06-08T22:18:34.966Z,101313.19
2018-06-08T22:21:03.339Z,101314.95
2018-06-08T22:23:31.734Z,101308.88
2018-06-08T22:26:00.114Z,101310.21
2018-06-08T22:28:28.510Z,101302.37
2018-06-08T22:30:56.887Z,101311.98
2018-06-08T22:33:25.275Z,101308.08
2018-06-08T22:35:53.646Z,101308.96
2018-06-08T22:38:22.045Z,101303.28
2018-06-08T22:40:50.420Z,101297.61
2018-06-08T22:43:18.809Z,101305.05
2018-06-08T22:45:47.186Z,101302.00
2018-06-08T22:48:15.582Z,101296.78
2018-06-08T22:50:43.948Z,101295.91
2018-06-08T22:53:12.342Z,101298.58
2018-06-08T22:55:40.720Z,101295.52
2018-06-08T22:58:09.303Z,101291.16
2018-06-08T23:00:37.674Z,101289.45
2018-06-08T23:03:06.097Z,101299.97
2018-06-08T23:05:34.468Z,101300.01
2018-06-08T23:08:02.839Z,101300.41
2018-06-08T23:10:31.230Z,101296.48
2018-06-08T23:12:59.634Z,101295.63
2018-06-08T23:15:28.058Z,101298.25
2018-06-08T23:17:56.440Z,101296.95
2018-06-08T23:20:24.838Z,101301.31
2018-06-08T23:22:53.203Z,101300.89
2018-06-08T23:25:21.594Z,101293.90
2018-06-08T23:27:49.971Z,101288.68
2018-06-08T23:30:18.377Z,101279.52
2018-06-08T23:32:46.761Z,101279.50
2018-06-08T23:35:15.145Z,101279.94
2018-06-08T23:37:43.518Z,101274.27
2018-06-08T23:40:11.910Z,101275.59
2018-06-08T23:42:40.270Z,101272.10
2018-06-08T23:45:08.656Z,101265.55
2018-06-08T23:47:37.030Z,101275.58
2018-06-08T23:50:05.418Z,101267.73
2018-06-08T23:52:33.791Z,101272.09
2018-06-08T23:55:02.196Z,101261.61
2018-06-08T23:57:30.674Z,101266.41
2018-06-08T23:59:59.065Z,101262.47
